sensor_id;sensor_type;location;lat;lon;timestamp;pressure;altitude;pressure_sealevel;temperature;humidity
74561;BME280;62979;55.720;37.606;2023-03-23T00:01:28;99518.84;;;7.35;51.68
74561;BME280;62979;55.720;37.606;2023-03-23T00:03:58;99504.13;;;7.32;51.71
74561;BME280;62979;55.720;37.606;2023-03-23T00:06:27;99526.34;;;7.53;51.69
74561;BME280;62979;55.720;37.606;2023-03-23T00:09:01;99527.16;;;7.58;51.45
74561;BME280;62979;55.720;37.606;2023-03-23T00:11:30;99518.47;;;7.59;51.52
74561;BME280;62979;55.720;37.606;2023-03-23T00:14:00;99517.63;;;7.57;51.40
74561;BME280;62979;55.720;37.606;2023-03-23T00:16:29;99509.88;;;7.54;51.45
74561;BME280;62979;55.720;37.606;2023-03-23T00:18:59;99506.44;;;7.50;51.55
74561;BME280;62979;55.720;37.606;2023-03-23T00:21:33;99497.91;;;7.41;51.75
74561;BME280;62979;55.720;37.606;2023-03-23T00:24:05;99521.22;;;7.50;51.80
74561;BME280;62979;55.720;37.606;2023-03-23T00:26:35;99507.53;;;7.37;52.03
74561;BME280;62979;55.720;37.606;2023-03-23T00:29:06;99507.34;;;7.51;51.73
74561;BME280;62979;55.720;37.606;2023-03-23T00:31:38;99500.34;;;7.53;51.51
74561;BME280;62979;55.720;37.606;2023-03-23T00:34:05;99524.53;;;7.58;51.57
74561;BME280;62979;55.720;37.606;2023-03-23T00:36:34;99500.25;;;7.61;51.39
74561;BME280;62979;55.720;37.606;2023-03-23T00:39:09;99504.69;;;7.54;51.30
74561;BME280;62979;55.720;37.606;2023-03-23T00:41:37;99495.84;;;7.64;51.31
74561;BME280;62979;55.720;37.606;2023-03-23T00:44:04;99502.66;;;7.73;51.16
74561;BME280;62979;55.720;37.606;2023-03-23T00:46:34;99493.94;;;7.76;51.20
74561;BME280;62979;55.720;37.606;2023-03-23T00:49:11;99494.81;;;7.75;51.23
74561;BME280;62979;55.720;37.606;2023-03-23T00:51:39;99487.03;;;7.71;51.23
74561;BME280;62979;55.720;37.606;2023-03-23T00:54:06;99486.22;;;7.69;51.25
74561;BME280;62979;55.720;37.606;2023-03-23T00:56:35;99495.56;;;7.80;51.31
74561;BME280;62979;55.720;37.606;2023-03-23T00:59:04;99486.94;;;7.78;51.12
74561;BME280;62979;55.720;37.606;2023-03-23T01:01:31;99486.13;;;7.74;51.28
74561;BME280;62979;55.720;37.606;2023-03-23T01:04:00;99480.22;;;7.66;51.36
74561;BME280;62979;55.720;37.606;2023-03-23T01:06:30;99489.53;;;7.78;51.40
74561;BME280;62979;55.720;37.606;2023-03-23T01:08:58;99494.72;;;7.79;51.30
74561;BME280;62979;55.720;37.606;2023-03-23T01:11:26;99485.16;;;7.80;51.33
74561;BME280;62979;55.720;37.606;2023-03-23T01:13:54;99478.34;;;7.72;51.40
74561;BME280;62979;55.720;37.606;2023-03-23T01:16:21;99488.59;;;7.82;51.36
74561;BME280;62979;55.720;37.606;2023-03-23T01:18:48;99487.81;;;7.77;51.43
74561;BME280;62979;55.720;37.606;2023-03-23T01:21:17;99486.97;;;7.76;51.50
74561;BME280;62979;55.720;37.606;2023-03-23T01:23:46;99479.94;;;7.81;51.39
74561;BME280;62979;55.720;37.606;2023-03-23T01:26:15;99482.84;;;7.63;51.75
74561;BME280;62979;55.720;37.606;2023-03-23T01:28:44;99485.44;;;7.63;51.77
74561;BME280;62979;55.720;37.606;2023-03-23T01:31:14;99470.78;;;7.57;51.95
74561;BME280;62979;55.720;37.606;2023-03-23T01:33:43;99469.88;;;7.60;52.15
74561;BME280;62979;55.720;37.606;2023-03-23T01:36:12;99465.69;;;7.51;52.51
74561;BME280;62979;55.720;37.606;2023-03-23T01:38:41;99473.47;;;7.53;52.50
74561;BME280;62979;55.720;37.606;2023-03-23T01:41:10;99461.38;;;7.50;52.63
74561;BME280;62979;55.720;37.606;2023-03-23T01:43:56;99459.69;;;7.46;52.78
74561;BME280;62979;55.720;37.606;2023-03-23T01:46:30;99457.78;;;7.57;52.84
74561;BME280;62979;55.720;37.606;2023-03-23T01:49:01;99444.03;;;7.49;52.68
74561;BME280;62979;55.720;37.606;2023-03-23T01:51:36;99453.75;;;7.36;53.06
74561;BME280;62979;55.720;37.606;2023-03-23T01:54:07;99438.13;;;7.38;53.16
74561;BME280;62979;55.720;37.606;2023-03-23T01:56:41;99441.56;;;7.41;53.25
74561;BME280;62979;55.720;37.606;2023-03-23T01:59:14;99463.22;;;7.42;53.13
74561;BME280;62979;55.720;37.606;2023-03-23T02:01:43;99446.78;;;7.41;53.16
74561;BME280;62979;55.720;37.606;2023-03-23T02:04:11;99443.19;;;7.47;53.00
74561;BME280;62979;55.720;37.606;2023-03-23T02:06:41;99448.53;;;7.38;53.02
74561;BME280;62979;55.720;37.606;2023-03-23T02:09:10;99439.84;;;7.40;52.86
74561;BME280;62979;55.720;37.606;2023-03-23T02:11:39;99437.22;;;7.40;52.77
74561;BME280;62979;55.720;37.606;2023-03-23T02:14:06;99439.03;;;7.37;53.17
74561;BME280;62979;55.720;37.606;2023-03-23T02:16:40;99437.28;;;7.36;53.30
74561;BME280;62979;55.720;37.606;2023-03-23T02:19:58;99441.53;;;7.43;53.08
74561;BME280;62979;55.720;37.606;2023-03-23T02:23:00;99444.16;;;7.41;53.12
74561;BME280;62979;55.720;37.606;2023-03-23T02:26:01;99441.56;;;7.41;53.02
74561;BME280;62979;55.720;37.606;2023-03-23T02:28:51;99445.75;;;7.50;52.90
74561;BME280;62979;55.720;37.606;2023-03-23T02:32:02;99429.22;;;7.54;52.87
74561;BME280;62979;55.720;37.606;2023-03-23T02:34:41;99431.97;;;7.43;53.10
74561;BME280;62979;55.720;37.606;2023-03-23T02:37:18;99408.75;;;7.33;53.15
74561;BME280;62979;55.720;37.606;2023-03-23T02:39:53;99426.81;;;7.42;53.06
74561;BME280;62979;55.720;37.606;2023-03-23T02:42:25;99432.09;;;7.36;53.33
74561;BME280;62979;55.720;37.606;2023-03-23T02:44:58;99410.81;;;7.09;53.49
74561;BME280;62979;55.720;37.606;2023-03-23T02:47:29;99437.59;;;7.17;54.04
74561;BME280;62979;55.720;37.606;2023-03-23T02:50:00;99430.66;;;7.16;54.21
74561;BME280;62979;55.720;37.606;2023-03-23T02:52:31;99432.41;;;7.16;54.06
74561;BME280;62979;55.720;37.606;2023-03-23T02:55:02;99430.53;;;7.25;53.94
74561;BME280;62979;55.720;37.606;2023-03-23T02:57:31;99435.66;;;7.32;53.96
74561;BME280;62979;55.720;37.606;2023-03-23T02:59:58;99446.88;;;7.34;54.04
74561;BME280;62979;55.720;37.606;2023-03-23T03:02:27;99421.03;;;7.21;54.27
74561;BME280;62979;55.720;37.606;2023-03-23T03:05:03;99438.34;;;7.24;54.49
74561;BME280;62979;55.720;37.606;2023-03-23T03:07:51;99423.63;;;7.23;54.38
74561;BME280;62979;55.720;37.606;2023-03-23T03:10:27;99427.84;;;7.30;54.44
74561;BME280;62979;55.720;37.606;2023-03-23T03:13:03;99433.06;;;7.28;54.31
74561;BME280;62979;55.720;37.606;2023-03-23T03:15:37;99418.38;;;7.27;54.30
74561;BME280;62979;55.720;37.606;2023-03-23T03:18:14;99424.34;;;7.33;54.22
74561;BME280;62979;55.720;37.606;2023-03-23T03:20:51;99424.34;;;7.31;54.35
74561;BME280;62979;55.720;37.606;2023-03-23T03:23:25;99412.31;;;7.27;54.49
74561;BME280;62979;55.720;37.606;2023-03-23T03:25:55;99420.19;;;7.22;54.87
74561;BME280;62979;55.720;37.606;2023-03-23T03:28:25;99417.50;;;7.27;54.77
74561;BME280;62979;55.720;37.606;2023-03-23T03:30:56;99409.66;;;7.28;54.61
74561;BME280;62979;55.720;37.606;2023-03-23T03:33:27;99409.72;;;7.25;54.89
74561;BME280;62979;55.720;37.606;2023-03-23T03:35:59;99418.50;;;7.18;55.19
74561;BME280;62979;55.720;37.606;2023-03-23T03:38:29;99408.03;;;7.23;55.00
74561;BME280;62979;55.720;37.606;2023-03-23T03:40:56;99399.44;;;7.16;55.29
74561;BME280;62979;55.720;37.606;2023-03-23T03:43:23;99411.47;;;7.23;55.23
74561;BME280;62979;55.720;37.606;2023-03-23T03:45:50;99395.22;;;7.11;55.14
74561;BME280;62979;55.720;37.606;2023-03-23T03:48:17;99397.69;;;7.17;55.44
74561;BME280;62979;55.720;37.606;2023-03-23T03:50:44;99402.13;;;7.12;55.36
74561;BME280;62979;55.720;37.606;2023-03-23T03:53:13;99400.72;;;6.89;56.09
74561;BME280;62979;55.720;37.606;2023-03-23T03:55:40;99404.03;;;7.00;55.79
74561;BME280;62979;55.720;37.606;2023-03-23T03:58:10;99404.06;;;6.99;55.92
74561;BME280;62979;55.720;37.606;2023-03-23T04:00:38;99402.34;;;6.98;56.21
74561;BME280;62979;55.720;37.606;2023-03-23T04:03:06;99405.78;;;7.00;56.44
74561;BME280;62979;55.720;37.606;2023-03-23T04:05:34;99405.88;;;6.92;56.54
74561;BME280;62979;55.720;37.606;2023-03-23T04:08:02;99399.69;;;7.02;56.30
74561;BME280;62979;55.720;37.606;2023-03-23T04:10:31;99410.88;;;7.04;56.41
74561;BME280;62979;55.720;37.606;2023-03-23T04:12:58;99406.69;;;6.96;56.65
74561;BME280;62979;55.720;37.606;2023-03-23T04:15:26;99391.00;;;7.02;56.65
74561;BME280;62979;55.720;37.606;2023-03-23T04:17:53;99384.88;;;7.06;56.52
74561;BME280;62979;55.720;37.606;2023-03-23T04:20:22;99402.25;;;7.04;56.92
74561;BME280;62979;55.720;37.606;2023-03-23T04:22:50;99385.97;;;6.90;57.21
74561;BME280;62979;55.720;37.606;2023-03-23T04:25:20;99392.81;;;6.97;57.09
74561;BME280;62979;55.720;37.606;2023-03-23T04:27:50;99393.84;;;6.85;57.31
74561;BME280;62979;55.720;37.606;2023-03-23T04:30:20;99374.75;;;6.88;57.45
74561;BME280;62979;55.720;37.606;2023-03-23T04:32:49;99396.19;;;7.05;56.97
74561;BME280;62979;55.720;37.606;2023-03-23T04:35:22;99397.03;;;7.04;57.08
74561;BME280;62979;55.720;37.606;2023-03-23T04:37:52;99391.88;;;7.02;56.97
74561;BME280;62979;55.720;37.606;2023-03-23T04:40:20;99398.84;;;6.99;56.97
74561;BME280;62979;55.720;37.606;2023-03-23T04:42:49;99399.63;;;7.04;56.99
74561;BME280;62979;55.720;37.606;2023-03-23T04:45:19;99402.34;;;6.98;57.13
74561;BME280;62979;55.720;37.606;2023-03-23T04:47:48;99396.25;;;7.00;57.13
74561;BME280;62979;55.720;37.606;2023-03-23T04:50:24;99404.78;;;7.07;56.84
74561;BME280;62979;55.720;37.606;2023-03-23T04:52:56;99399.56;;;7.08;56.78
74561;BME280;62979;55.720;37.606;2023-03-23T04:55:24;99403.88;;;7.11;56.84
74561;BME280;62979;55.720;37.606;2023-03-23T04:57:53;99396.00;;;7.17;56.82
74561;BME280;62979;55.720;37.606;2023-03-23T05:00:22;99391.50;;;7.27;56.97
74561;BME280;62979;55.720;37.606;2023-03-23T05:02:49;99402.84;;;7.21;56.61
74561;BME280;62979;55.720;37.606;2023-03-23T05:05:18;99379.53;;;7.15;56.75
74561;BME280;62979;55.720;37.606;2023-03-23T05:07:46;99387.22;;;7.21;56.78
74561;BME280;62979;55.720;37.606;2023-03-23T05:10:15;99398.41;;;7.28;56.64
74561;BME280;62979;55.720;37.606;2023-03-23T05:12:42;99395.78;;;7.29;56.93
74561;BME280;62979;55.720;37.606;2023-03-23T05:15:12;99402.56;;;7.40;56.75
74561;BME280;62979;55.720;37.606;2023-03-23T05:17:40;99414.78;;;7.35;56.57
74561;BME280;62979;55.720;37.606;2023-03-23T05:20:11;99410.50;;;7.32;56.79
74561;BME280;62979;55.720;37.606;2023-03-23T05:22:40;99412.31;;;7.25;56.74
74561;BME280;62979;55.720;37.606;2023-03-23T05:25:08;99411.34;;;7.34;57.02
74561;BME280;62979;55.720;37.606;2023-03-23T05:27:35;99407.88;;;7.32;57.02
74561;BME280;62979;55.720;37.606;2023-03-23T05:30:04;99402.56;;;7.40;56.81
74561;BME280;62979;55.720;37.606;2023-03-23T05:32:33;99410.28;;;7.44;56.84
74561;BME280;62979;55.720;37.606;2023-03-23T05:35:03;99407.63;;;7.49;56.81
74561;BME280;62979;55.720;37.606;2023-03-23T05:37:30;99400.38;;;7.66;56.41
74561;BME280;62979;55.720;37.606;2023-03-23T05:39:57;99388.13;;;7.73;55.99
74561;BME280;62979;55.720;37.606;2023-03-23T05:42:30;99393.03;;;7.88;55.66
74561;BME280;62979;55.720;37.606;2023-03-23T05:44:58;99406.06;;;7.87;55.59
74561;BME280;62979;55.720;37.606;2023-03-23T05:47:27;99397.41;;;7.86;55.44
74561;BME280;62979;55.720;37.606;2023-03-23T05:49:56;99413.25;;;7.74;55.68
74561;BME280;62979;55.720;37.606;2023-03-23T05:52:24;99404.44;;;7.81;55.77
74561;BME280;62979;55.720;37.606;2023-03-23T05:54:51;99401.56;;;7.97;55.49
74561;BME280;62979;55.720;37.606;2023-03-23T05:57:19;99406.59;;;8.07;55.06
74561;BME280;62979;55.720;37.606;2023-03-23T05:59:48;99394.44;;;8.06;55.19
74561;BME280;62979;55.720;37.606;2023-03-23T06:02:15;99397.66;;;8.19;55.12
74561;BME280;62979;55.720;37.606;2023-03-23T06:04:42;99388.69;;;8.34;54.59
74561;BME280;62979;55.720;37.606;2023-03-23T06:07:11;99398.94;;;8.45;54.22
74561;BME280;62979;55.720;37.606;2023-03-23T06:09:40;99386.97;;;8.33;54.37
74561;BME280;62979;55.720;37.606;2023-03-23T06:12:08;99394.63;;;8.42;54.35
74561;BME280;62979;55.720;37.606;2023-03-23T06:14:35;99396.31;;;8.46;54.31
74561;BME280;62979;55.720;37.606;2023-03-23T06:17:03;99391.19;;;8.40;54.31
74561;BME280;62979;55.720;37.606;2023-03-23T06:19:30;99385.81;;;8.48;54.59
74561;BME280;62979;55.720;37.606;2023-03-23T06:21:56;99393.53;;;8.52;54.14
74561;BME280;62979;55.720;37.606;2023-03-23T06:24:26;99390.13;;;8.50;54.23
74561;BME280;62979;55.720;37.606;2023-03-23T06:26:53;99403.09;;;8.53;54.09
74561;BME280;62979;55.720;37.606;2023-03-23T06:29:20;99392.94;;;8.38;54.25
74561;BME280;62979;55.720;37.606;2023-03-23T06:31:50;99406.59;;;8.52;54.02
74561;BME280;62979;55.720;37.606;2023-03-23T06:34:21;99402.38;;;8.45;54.26
74561;BME280;62979;55.720;37.606;2023-03-23T06:36:48;99400.31;;;8.61;54.05
74561;BME280;62979;55.720;37.606;2023-03-23T06:39:15;99406.09;;;8.75;53.74
74561;BME280;62979;55.720;37.606;2023-03-23T06:41:43;99389.53;;;8.78;53.42
74561;BME280;62979;55.720;37.606;2023-03-23T06:44:10;99384.81;;;8.95;53.10
74561;BME280;62979;55.720;37.606;2023-03-23T06:46:38;99374.03;;;9.09;53.33
74561;BME280;62979;55.720;37.606;2023-03-23T06:49:07;99379.25;;;9.09;52.78
74561;BME280;62979;55.720;37.606;2023-03-23T06:51:35;99379.97;;;9.16;52.88
74561;BME280;62979;55.720;37.606;2023-03-23T06:54:03;99385.94;;;9.21;52.90
74561;BME280;62979;55.720;37.606;2023-03-23T06:56:31;99381.41;;;9.29;52.62
74561;BME280;62979;55.720;37.606;2023-03-23T06:58:59;99371.53;;;9.40;52.57
74561;BME280;62979;55.720;37.606;2023-03-23T07:01:26;99375.94;;;9.38;52.22
74561;BME280;62979;55.720;37.606;2023-03-23T07:03:54;99384.81;;;9.31;52.26
74561;BME280;62979;55.720;37.606;2023-03-23T07:06:22;99387.31;;;9.36;52.17
74561;BME280;62979;55.720;37.606;2023-03-23T07:08:50;99366.41;;;9.37;51.97
74561;BME280;62979;55.720;37.606;2023-03-23T07:11:17;99369.78;;;9.41;52.08
74561;BME280;62979;55.720;37.606;2023-03-23T07:13:44;99397.38;;;9.51;51.97
74561;BME280;62979;55.720;37.606;2023-03-23T07:16:13;99365.13;;;9.54;51.71
74561;BME280;62979;55.720;37.606;2023-03-23T07:18:39;99370.09;;;9.63;51.62
74561;BME280;62979;55.720;37.606;2023-03-23T07:21:06;99367.44;;;9.64;51.50
74561;BME280;62979;55.720;37.606;2023-03-23T07:23:33;99365.69;;;9.65;51.28
74561;BME280;62979;55.720;37.606;2023-03-23T07:26:01;99363.03;;;9.68;51.25
74561;BME280;62979;55.720;37.606;2023-03-23T07:28:29;99362.09;;;9.69;50.91
74561;BME280;62979;55.720;37.606;2023-03-23T07:30:56;99369.97;;;9.68;51.00
74561;BME280;62979;55.720;37.606;2023-03-23T07:33:24;99373.53;;;9.65;51.12
74561;BME280;62979;55.720;37.606;2023-03-23T07:35:52;99366.41;;;9.70;51.06
74561;BME280;62979;55.720;37.606;2023-03-23T07:38:19;99354.88;;;9.79;51.03
74561;BME280;62979;55.720;37.606;2023-03-23T07:40:47;99358.94;;;9.91;50.64
74561;BME280;62979;55.720;37.606;2023-03-23T07:43:14;99376.97;;;10.00;50.23
74561;BME280;62979;55.720;37.606;2023-03-23T07:45:41;99353.38;;;10.03;50.03
74561;BME280;62979;55.720;37.606;2023-03-23T07:48:08;99368.09;;;10.05;49.89
74561;BME280;62979;55.720;37.606;2023-03-23T07:50:36;99349.59;;;10.13;50.04
74561;BME280;62979;55.720;37.606;2023-03-23T07:53:03;99349.97;;;10.32;49.22
74561;BME280;62979;55.720;37.606;2023-03-23T07:55:30;99348.03;;;10.39;49.06
74561;BME280;62979;55.720;37.606;2023-03-23T07:57:57;99347.66;;;10.51;48.91
74561;BME280;62979;55.720;37.606;2023-03-23T08:00:25;99326.44;;;10.60;48.20
74561;BME280;62979;55.720;37.606;2023-03-23T08:02:53;99339.94;;;10.76;48.22
74561;BME280;62979;55.720;37.606;2023-03-23T08:05:22;99323.97;;;10.85;47.97
74561;BME280;62979;55.720;37.606;2023-03-23T08:07:53;99333.22;;;10.96;47.61
74561;BME280;62979;55.720;37.606;2023-03-23T08:10:22;99321.84;;;10.97;47.14
74561;BME280;62979;55.720;37.606;2023-03-23T08:12:51;99332.72;;;11.11;46.70
74561;BME280;62979;55.720;37.606;2023-03-23T08:15:21;99318.25;;;10.99;46.39
74561;BME280;62979;55.720;37.606;2023-03-23T08:17:48;99322.28;;;11.09;46.28
74561;BME280;62979;55.720;37.606;2023-03-23T08:20:16;99323.19;;;11.08;45.86
74561;BME280;62979;55.720;37.606;2023-03-23T08:22:45;99319.59;;;11.12;46.10
74561;BME280;62979;55.720;37.606;2023-03-23T08:25:22;99322.00;;;11.19;45.23
74561;BME280;62979;55.720;37.606;2023-03-23T08:27:50;99322.00;;;11.19;45.48
74561;BME280;62979;55.720;37.606;2023-03-23T08:30:20;99310.56;;;11.21;45.15
74561;BME280;62979;55.720;37.606;2023-03-23T08:32:49;99304.41;;;11.49;45.71
74561;BME280;62979;55.720;37.606;2023-03-23T08:35:18;99303.28;;;11.81;45.30
74561;BME280;62979;55.720;37.606;2023-03-23T08:37:46;99310.28;;;12.06;43.97
74561;BME280;62979;55.720;37.606;2023-03-23T08:40:19;99309.63;;;11.99;43.24
74561;BME280;62979;55.720;37.606;2023-03-23T08:42:50;99294.69;;;12.03;43.38
74561;BME280;62979;55.720;37.606;2023-03-23T08:45:20;99299.97;;;12.25;43.63
74561;BME280;62979;55.720;37.606;2023-03-23T08:47:48;99283.72;;;12.15;42.65
74561;BME280;62979;55.720;37.606;2023-03-23T08:50:18;99285.56;;;12.13;43.16
74561;BME280;62979;55.720;37.606;2023-03-23T08:52:48;99279.03;;;11.99;43.01
74561;BME280;62979;55.720;37.606;2023-03-23T08:55:15;99269.16;;;12.08;43.06
74561;BME280;62979;55.720;37.606;2023-03-23T08:57:44;99286.53;;;12.10;42.92
74561;BME280;62979;55.720;37.606;2023-03-23T09:00:14;99271.72;;;12.31;42.83
74561;BME280;62979;55.720;37.606;2023-03-23T09:02:44;99260.59;;;12.48;42.46
74561;BME280;62979;55.720;37.606;2023-03-23T09:05:13;99263.03;;;12.75;41.96
74561;BME280;62979;55.720;37.606;2023-03-23T09:07:43;99249.50;;;12.85;41.67
74561;BME280;62979;55.720;37.606;2023-03-23T09:10:13;99232.16;;;12.81;41.46
74561;BME280;62979;55.720;37.606;2023-03-23T09:12:41;99261.78;;;12.85;41.68
74561;BME280;62979;55.720;37.606;2023-03-23T09:15:12;99246.06;;;12.83;41.56
74561;BME280;62979;55.720;37.606;2023-03-23T09:17:48;99238.13;;;12.63;41.26
74561;BME280;62979;55.720;37.606;2023-03-23T09:20:19;99235.09;;;12.74;41.67
74561;BME280;62979;55.720;37.606;2023-03-23T09:22:51;99232.81;;;12.87;41.20
74561;BME280;62979;55.720;37.606;2023-03-23T09:25:21;99233.47;;;12.92;41.30
74561;BME280;62979;55.720;37.606;2023-03-23T09:27:53;99246.19;;;13.02;40.55
74561;BME280;62979;55.720;37.606;2023-03-23T09:30:24;99231.00;;;13.09;40.61
74561;BME280;62979;55.720;37.606;2023-03-23T09:32:52;99227.78;;;13.23;40.61
74561;BME280;62979;55.720;37.606;2023-03-23T09:35:20;99221.38;;;13.51;40.16
74561;BME280;62979;55.720;37.606;2023-03-23T09:37:49;99256.63;;;13.24;39.80
74561;BME280;62979;55.720;37.606;2023-03-23T09:40:18;99235.88;;;13.18;40.00
74561;BME280;62979;55.720;37.606;2023-03-23T09:43:19;99203.19;;;13.25;40.12
74561;BME280;62979;55.720;37.606;2023-03-23T09:46:03;99211.78;;;13.49;39.76
74561;BME280;62979;55.720;37.606;2023-03-23T09:48:46;99199.19;;;13.77;39.79
74561;BME280;62979;55.720;37.606;2023-03-23T09:51:29;99202.31;;;14.04;38.87
74561;BME280;62979;55.720;37.606;2023-03-23T09:54:10;99188.88;;;14.29;38.52
74561;BME280;62979;55.720;37.606;2023-03-23T09:56:43;99193.41;;;14.44;37.90
74561;BME280;62979;55.720;37.606;2023-03-23T09:59:18;99192.69;;;14.94;37.33
74561;BME280;62979;55.720;37.606;2023-03-23T10:01:51;99175.50;;;15.22;36.58
74561;BME280;62979;55.720;37.606;2023-03-23T10:04:30;99172.44;;;15.80;36.14
74561;BME280;62979;55.720;37.606;2023-03-23T10:07:10;99161.13;;;16.26;34.75
74561;BME280;62979;55.720;37.606;2023-03-23T10:09:39;99198.50;;;16.18;34.03
74561;BME280;62979;55.720;37.606;2023-03-23T10:12:16;99180.25;;;15.82;34.53
74561;BME280;62979;55.720;37.606;2023-03-23T10:15:04;99151.94;;;16.17;34.50
74561;BME280;62979;55.720;37.606;2023-03-23T10:17:44;99184.34;;;16.51;33.49
74561;BME280;62979;55.720;37.606;2023-03-23T10:20:28;99162.63;;;16.92;32.84
74561;BME280;62979;55.720;37.606;2023-03-23T10:23:09;99164.03;;;16.67;32.77
74561;BME280;62979;55.720;37.606;2023-03-23T10:25:42;99166.38;;;17.47;32.23
74561;BME280;62979;55.720;37.606;2023-03-23T10:28:17;99163.28;;;17.69;31.61
74561;BME280;62979;55.720;37.606;2023-03-23T10:30:52;99134.50;;;18.06;31.01
74561;BME280;62979;55.720;37.606;2023-03-23T10:33:25;99182.66;;;18.25;30.02
74561;BME280;62979;55.720;37.606;2023-03-23T10:36:03;99160.69;;;18.37;30.06
74561;BME280;62979;55.720;37.606;2023-03-23T10:38:39;99141.41;;;19.02;29.75
74561;BME280;62979;55.720;37.606;2023-03-23T10:41:12;99155.41;;;19.56;29.09
74561;BME280;62979;55.720;37.606;2023-03-23T10:43:41;99160.06;;;20.15;28.81
74561;BME280;62979;55.720;37.606;2023-03-23T10:46:21;99139.38;;;20.31;27.56
74561;BME280;62979;55.720;37.606;2023-03-23T10:48:58;99142.38;;;20.63;27.34
74561;BME280;62979;55.720;37.606;2023-03-23T10:51:31;99152.53;;;21.16;26.85
74561;BME280;62979;55.720;37.606;2023-03-23T10:54:02;99152.06;;;21.22;26.60
74561;BME280;62979;55.720;37.606;2023-03-23T10:59:12;99144.59;;;21.38;25.80
74561;BME280;62979;55.720;37.606;2023-03-23T11:01:44;99141.69;;;21.53;25.47
74561;BME280;62979;55.720;37.606;2023-03-23T11:04:15;99147.81;;;21.31;25.76
74561;BME280;62979;55.720;37.606;2023-03-23T11:06:45;99145.25;;;21.07;25.66
74561;BME280;62979;55.720;37.606;2023-03-23T11:09:17;99154.22;;;21.17;25.46
74561;BME280;62979;55.720;37.606;2023-03-23T11:11:50;99155.81;;;20.84;26.07
74561;BME280;62979;55.720;37.606;2023-03-23T11:14:19;99135.97;;;20.66;25.78
74561;BME280;62979;55.720;37.606;2023-03-23T11:16:55;99153.91;;;20.86;25.76
74561;BME280;62979;55.720;37.606;2023-03-23T11:19:25;99129.28;;;20.95;25.77
74561;BME280;62979;55.720;37.606;2023-03-23T11:21:58;99110.34;;;20.65;25.77
74561;BME280;62979;55.720;37.606;2023-03-23T11:24:34;99151.69;;;20.08;26.53
74561;BME280;62979;55.720;37.606;2023-03-23T11:27:03;99140.53;;;19.79;26.84
74561;BME280;62979;55.720;37.606;2023-03-23T11:29:35;99135.38;;;20.49;26.37
74561;BME280;62979;55.720;37.606;2023-03-23T11:32:06;99134.50;;;20.62;26.11
74561;BME280;62979;55.720;37.606;2023-03-23T11:34:41;99136.72;;;20.79;25.65
74561;BME280;62979;55.720;37.606;2023-03-23T11:37:12;99168.63;;;20.79;26.03
74561;BME280;62979;55.720;37.606;2023-03-23T11:39:53;99130.88;;;20.63;26.20
74561;BME280;62979;55.720;37.606;2023-03-23T11:42:24;99160.69;;;19.81;26.89
74561;BME280;62979;55.720;37.606;2023-03-23T11:44:53;99122.50;;;19.33;27.44
74561;BME280;62979;55.720;37.606;2023-03-23T11:47:29;99147.34;;;19.32;27.83
74561;BME280;62979;55.720;37.606;2023-03-23T11:50:09;99156.31;;;18.78;28.57
74561;BME280;62979;55.720;37.606;2023-03-23T11:52:45;99149.84;;;18.28;29.34
74561;BME280;62979;55.720;37.606;2023-03-23T11:55:21;99138.78;;;17.94;30.15
74561;BME280;62979;55.720;37.606;2023-03-23T11:57:52;99149.34;;;18.08;30.49
74561;BME280;62979;55.720;37.606;2023-03-23T12:00:21;99135.47;;;18.05;30.32
74561;BME280;62979;55.720;37.606;2023-03-23T12:02:57;99139.00;;;17.33;30.83
74561;BME280;62979;55.720;37.606;2023-03-23T12:05:37;99157.41;;;17.21;31.44
74561;BME280;62979;55.720;37.606;2023-03-23T12:08:30;99148.34;;;17.25;31.52
74561;BME280;62979;55.720;37.606;2023-03-23T12:11:15;99139.84;;;17.20;31.44
74561;BME280;62979;55.720;37.606;2023-03-23T12:14:03;99137.94;;;17.50;31.17
74561;BME280;62979;55.720;37.606;2023-03-23T12:16:53;99135.88;;;17.55;31.09
74561;BME280;62979;55.720;37.606;2023-03-23T12:19:33;99127.59;;;18.17;30.50
74561;BME280;62979;55.720;37.606;2023-03-23T12:22:16;99124.59;;;18.09;30.35
74561;BME280;62979;55.720;37.606;2023-03-23T12:24:59;99126.41;;;17.94;30.73
74561;BME280;62979;55.720;37.606;2023-03-23T12:27:46;99123.22;;;17.89;30.98
74561;BME280;62979;55.720;37.606;2023-03-23T12:30:30;99125.69;;;17.92;30.54
74561;BME280;62979;55.720;37.606;2023-03-23T12:33:11;99121.53;;;17.60;31.30
74561;BME280;62979;55.720;37.606;2023-03-23T12:35:54;99117.19;;;17.44;31.86
74561;BME280;62979;55.720;37.606;2023-03-23T12:38:51;99108.63;;;17.12;32.08
74561;BME280;62979;55.720;37.606;2023-03-23T12:41:32;99108.22;;;17.04;32.48
74561;BME280;62979;55.720;37.606;2023-03-23T12:44:06;99117.91;;;16.89;32.38
74561;BME280;62979;55.720;37.606;2023-03-23T12:47:06;99107.75;;;16.67;33.17
74561;BME280;62979;55.720;37.606;2023-03-23T12:49:46;99098.53;;;16.44;33.36
74561;BME280;62979;55.720;37.606;2023-03-23T12:52:23;99104.59;;;16.46;33.47
74561;BME280;62979;55.720;37.606;2023-03-23T12:54:54;99109.63;;;16.35;33.75
74561;BME280;62979;55.720;37.606;2023-03-23T12:57:32;99099.56;;;16.41;33.64
74561;BME280;62979;55.720;37.606;2023-03-23T13:00:08;99090.88;;;16.39;33.81
74561;BME280;62979;55.720;37.606;2023-03-23T13:02:47;99097.91;;;16.24;34.01
74561;BME280;62979;55.720;37.606;2023-03-23T13:05:32;99095.00;;;16.29;34.31
74561;BME280;62979;55.720;37.606;2023-03-23T13:08:10;99099.97;;;16.03;34.34
74561;BME280;62979;55.720;37.606;2023-03-23T13:10:45;99100.31;;;15.81;34.99
74561;BME280;62979;55.720;37.606;2023-03-23T13:13:17;99104.41;;;15.71;34.95
74561;BME280;62979;55.720;37.606;2023-03-23T13:15:56;99123.50;;;15.59;35.11
74561;BME280;62979;55.720;37.606;2023-03-23T13:18:37;99094.63;;;15.73;35.08
74561;BME280;62979;55.720;37.606;2023-03-23T13:21:16;99085.03;;;15.55;35.17
74561;BME280;62979;55.720;37.606;2023-03-23T13:23:54;99092.06;;;15.38;35.50